Hamburg-Fuhlsbuettel, Germany (EDDH) 53-38N 010-00E 15M
May 27, 2024 - 05:50 PM EDT / 2024.05.27 2150 UTC
Wind: from the N (360 degrees) at 3 MPH (3 KT) (direction variable):0
Visibility: greater than 7 mile(s):0
Sky conditions: partly cloudy
Weather: light rain showers; Towering cumulus clouds observed
Temperature: 59 F (15 C)
Dew Point: 57 F (14 C)
Relative Humidity: 93%
Pressure (altimeter): 29.97 in. Hg (1015 hPa)
ob: EDDH 272150Z AUTO 36003KT 310V060 9999 -SHRA SCT049 FEW///TCU 15/14 Q1015 TEMPO SHRA
cycle: 22